createdAt,value
2019-05-20T00:00:44.191Z,2.10
2019-05-20T00:03:14.454Z,2.10
2019-05-20T00:05:45.911Z,2.40
2019-05-20T00:08:16.566Z,2.50
2019-05-20T00:10:46.748Z,2.57
2019-05-20T00:13:17.297Z,2.83
2019-05-20T00:15:47.549Z,2.53
2019-05-20T00:18:17.825Z,2.30
2019-05-20T00:20:48.001Z,3.07
2019-05-20T00:23:18.274Z,2.40
2019-05-20T00:25:48.459Z,3.08
2019-05-20T00:28:19.063Z,2.87
2019-05-20T00:30:49.289Z,3.03
2019-05-20T00:33:19.484Z,2.63
2019-05-20T00:35:50.042Z,3.00
2019-05-20T00:38:20.241Z,2.90
2019-05-20T00:40:51.547Z,2.57
2019-05-20T00:43:22.080Z,3.00
2019-05-20T00:45:52.253Z,2.87
2019-05-20T00:48:22.744Z,2.97
2019-05-20T00:50:52.920Z,3.10
2019-05-20T00:53:23.138Z,3.33
2019-05-20T00:55:53.661Z,3.73
2019-05-20T00:58:24.320Z,3.37
2019-05-20T01:00:54.650Z,4.17
2019-05-20T01:03:24.812Z,2.93
2019-05-20T01:05:56.103Z,3.00
2019-05-20T01:08:26.874Z,3.08
2019-05-20T01:10:57.758Z,3.70
2019-05-20T01:13:29.979Z,3.00
2019-05-20T01:16:01.122Z,3.13
2019-05-20T01:18:31.327Z,3.63
2019-05-20T01:21:01.516Z,3.00
2019-05-20T01:23:31.802Z,3.30
2019-05-20T01:26:02.310Z,3.13
2019-05-20T01:28:32.514Z,3.03
2019-05-20T01:31:02.787Z,2.80
2019-05-20T01:33:32.987Z,2.87
2019-05-20T01:36:04.527Z,2.53
2019-05-20T01:38:34.740Z,2.60
2019-05-20T01:41:04.945Z,3.23
2019-05-20T01:43:35.462Z,3.10
2019-05-20T01:46:05.725Z,3.17
2019-05-20T01:48:35.985Z,2.93
2019-05-20T01:51:06.510Z,3.87
2019-05-20T01:53:36.743Z,3.03
2019-05-20T01:56:07.400Z,3.17
2019-05-20T01:58:39.587Z,3.02
2019-05-20T02:01:09.527Z,3.27
2019-05-20T02:03:40.083Z,3.13
2019-05-20T02:06:10.261Z,2.97
2019-05-20T02:08:40.510Z,3.13
2019-05-20T02:11:10.703Z,3.40
2019-05-20T02:13:53.924Z,2.67
2019-05-20T02:19:36.070Z,3.97
2019-05-20T02:22:06.331Z,3.63
2019-05-20T02:24:36.537Z,3.83
2019-05-20T02:27:06.793Z,3.80
2019-05-20T02:29:37.110Z,4.40
2019-05-20T02:32:07.907Z,3.97
2019-05-20T02:34:38.428Z,2.60
2019-05-20T02:37:08.752Z,2.70
2019-05-20T02:39:38.985Z,2.63
2019-05-20T02:42:09.368Z,3.17
2019-05-20T02:44:39.583Z,2.83
2019-05-20T02:47:09.758Z,3.17
2019-05-20T02:49:39.963Z,2.60
2019-05-20T02:52:10.149Z,2.47
2019-05-20T02:54:41.971Z,2.80
2019-05-20T02:57:12.159Z,3.27
2019-05-20T02:59:42.381Z,3.87
2019-05-20T03:02:12.564Z,2.70
2019-05-20T03:04:43.105Z,2.40
2019-05-20T03:07:13.636Z,4.83
2019-05-20T03:09:43.932Z,4.20
2019-05-20T03:12:14.117Z,2.57
2019-05-20T03:14:45.732Z,3.77
2019-05-20T03:17:16.088Z,3.47
2019-05-20T03:19:46.368Z,2.60
2019-05-20T03:22:17.191Z,2.77
2019-05-20T03:24:47.396Z,2.50
2019-05-20T03:27:17.580Z,2.87
2019-05-20T03:29:47.811Z,2.73
2019-05-20T03:32:18.022Z,2.80
2019-05-20T03:34:57.495Z,2.97
2019-05-20T03:37:20.114Z,2.67
2019-05-20T03:39:51.375Z,3.00
2019-05-20T03:42:21.583Z,2.50
2019-05-20T03:44:51.819Z,3.70
2019-05-20T03:47:21.988Z,3.10
2019-05-20T03:49:52.290Z,3.70
2019-05-20T03:52:22.562Z,3.73
2019-05-20T03:54:53.085Z,3.27
2019-05-20T03:57:23.945Z,3.00
2019-05-20T03:59:56.087Z,2.93
2019-05-20T04:02:26.661Z,2.83
2019-05-20T04:05:02.164Z,3.00
2019-05-20T04:07:29.931Z,3.07
2019-05-20T04:10:00.184Z,3.17
2019-05-20T04:12:31.415Z,2.87
2019-05-20T04:15:01.936Z,3.00
2019-05-20T04:17:34.444Z,2.80
2019-05-20T04:20:05.195Z,2.93
2019-05-20T04:22:35.426Z,3.27
2019-05-20T04:25:06.519Z,3.17
2019-05-20T04:27:37.035Z,2.80
2019-05-20T04:30:08.280Z,3.07
2019-05-20T04:32:38.527Z,3.13
2019-05-20T04:35:21.736Z,3.23
2019-05-20T04:37:40.899Z,3.27
2019-05-20T04:40:14.111Z,2.97
2019-05-20T04:42:45.193Z,3.20
2019-05-20T04:45:16.663Z,3.33
2019-05-20T04:47:47.208Z,3.60
2019-05-20T04:50:17.451Z,3.17
2019-05-20T04:52:48.177Z,4.40
2019-05-20T04:55:18.412Z,3.53
2019-05-20T04:57:49.320Z,3.20
2019-05-20T05:00:42.187Z,3.27
2019-05-20T05:03:12.419Z,3.50
2019-05-20T05:05:43.037Z,3.77
2019-05-20T05:08:13.278Z,3.53
2019-05-20T05:10:44.457Z,3.80
2019-05-20T05:13:17.377Z,3.17
2019-05-20T05:15:50.484Z,4.13
2019-05-20T05:18:24.496Z,2.93
2019-05-20T05:20:54.877Z,4.33
2019-05-20T05:23:25.710Z,3.33
2019-05-20T05:25:55.971Z,3.60
2019-05-20T05:28:26.189Z,4.00
2019-05-20T05:30:56.720Z,4.03
2019-05-20T05:33:27.257Z,3.80
2019-05-20T05:35:58.441Z,3.67
2019-05-20T05:38:28.656Z,4.33
2019-05-20T05:40:59.153Z,3.33
2019-05-20T05:43:29.389Z,4.00
2019-05-20T05:46:01.981Z,3.37
2019-05-20T05:48:32.379Z,4.03
2019-05-20T05:51:03.014Z,3.90
2019-05-20T05:53:35.065Z,4.87
2019-05-20T05:56:05.609Z,3.67
2019-05-20T05:58:35.891Z,3.80
2019-05-20T06:01:06.190Z,4.63
2019-05-20T06:03:36.526Z,4.30
2019-05-20T06:06:12.783Z,3.60
2019-05-20T06:08:43.084Z,4.47
2019-05-20T06:11:15.840Z,4.07
2019-05-20T06:13:47.888Z,5.10
2019-05-20T06:16:33.574Z,4.37
2019-05-20T06:18:50.175Z,3.97
2019-05-20T06:21:22.474Z,4.60
2019-05-20T06:23:54.196Z,5.03
2019-05-20T06:26:24.766Z,3.90
2019-05-20T06:28:56.143Z,5.43
2019-05-20T06:31:28.061Z,4.63
2019-05-20T06:33:58.381Z,3.00
2019-05-20T06:36:28.609Z,3.17
2019-05-20T06:39:14.754Z,3.57
2019-05-20T06:41:44.990Z,3.13
2019-05-20T06:44:15.270Z,3.55
2019-05-20T06:46:46.797Z,2.95
2019-05-20T06:49:17.122Z,4.13
2019-05-20T06:51:47.649Z,3.40
2019-05-20T06:54:17.898Z,3.93
2019-05-20T06:56:48.441Z,2.90
2019-05-20T06:59:19.560Z,3.13
2019-05-20T07:01:51.630Z,3.20
2019-05-20T07:04:23.675Z,2.77
2019-05-20T07:06:54.454Z,3.30
2019-05-20T07:09:24.694Z,3.03
2019-05-20T07:11:55.591Z,3.43
2019-05-20T07:14:28.311Z,3.43
2019-05-20T07:16:58.667Z,3.30
2019-05-20T07:19:29.015Z,3.27
2019-05-20T07:21:59.615Z,3.60
2019-05-20T07:24:30.792Z,3.77
2019-05-20T07:27:01.481Z,4.00
2019-05-20T07:29:32.493Z,5.47
2019-05-20T07:32:03.900Z,5.33
2019-05-20T07:34:34.623Z,5.13
2019-05-20T07:37:04.825Z,4.17
2019-05-20T07:39:35.149Z,6.53
2019-05-20T07:42:05.398Z,4.63
2019-05-20T07:44:35.753Z,5.70
2019-05-20T07:47:06.440Z,5.77
2019-05-20T07:49:36.710Z,5.83
2019-05-20T07:52:07.559Z,5.63
2019-05-20T07:54:37.897Z,4.97
2019-05-20T07:57:10.204Z,4.80
2019-05-20T07:59:42.907Z,5.00
2019-05-20T08:02:13.597Z,4.83
2019-05-20T08:04:44.063Z,3.90
2019-05-20T08:07:27.460Z,3.83
2019-05-20T08:09:46.768Z,6.30
2019-05-20T08:12:17.019Z,7.47
2019-05-20T08:14:47.235Z,4.23
2019-05-20T08:17:17.541Z,6.87
2019-05-20T08:19:47.760Z,8.07
2019-05-20T08:22:17.934Z,3.40
2019-05-20T08:24:48.376Z,5.65
2019-05-20T08:27:18.567Z,7.90
2019-05-20T08:29:48.839Z,6.93
2019-05-20T08:32:20.525Z,6.57
2019-05-20T08:34:50.787Z,6.55
2019-05-20T08:37:21.321Z,6.13
2019-05-20T08:39:52.963Z,8.83
2019-05-20T08:42:23.270Z,9.00
2019-05-20T08:44:53.799Z,7.97
2019-05-20T08:47:23.984Z,9.43
2019-05-20T08:49:54.682Z,9.27
2019-05-20T08:52:24.937Z,7.97
2019-05-20T08:54:55.524Z,7.70
2019-05-20T08:57:25.714Z,8.20
2019-05-20T08:59:55.913Z,8.80
2019-05-20T09:02:26.081Z,8.47
2019-05-20T09:04:56.361Z,7.80
2019-05-20T09:07:27.576Z,8.60
2019-05-20T09:09:57.792Z,8.37
2019-05-20T09:12:27.983Z,9.40
2019-05-20T09:14:58.195Z,9.73
2019-05-20T09:17:29.380Z,9.30
2019-05-20T09:19:59.583Z,8.20
2019-05-20T09:22:30.048Z,10.63
2019-05-20T09:25:00.659Z,8.03
2019-05-20T09:27:30.974Z,8.70
2019-05-20T09:30:01.595Z,9.03
2019-05-20T09:32:33.018Z,8.73
2019-05-20T09:35:03.557Z,8.33
2019-05-20T09:37:34.779Z,7.63
2019-05-20T09:40:05.550Z,7.30
2019-05-20T09:42:40.841Z,9.00
2019-05-20T09:45:09.912Z,7.13
2019-05-20T09:47:40.265Z,8.80
2019-05-20T09:50:10.556Z,10.20
2019-05-20T09:52:40.938Z,6.33
2019-05-20T09:55:11.135Z,9.63
2019-05-20T09:57:41.420Z,7.57
2019-05-20T10:00:12.087Z,6.93
2019-05-20T10:02:42.575Z,7.37
2019-05-20T10:05:12.842Z,6.17
2019-05-20T10:07:43.041Z,6.07
2019-05-20T10:10:13.653Z,6.57
2019-05-20T10:12:46.638Z,7.57
2019-05-20T10:15:16.058Z,4.90
2019-05-20T10:17:46.579Z,6.60
2019-05-20T10:20:17.964Z,7.47
2019-05-20T10:22:48.619Z,5.13
2019-05-20T10:25:19.193Z,5.20
2019-05-20T10:27:49.411Z,7.63
2019-05-20T10:30:20.202Z,5.77
2019-05-20T10:32:50.532Z,7.30
2019-05-20T10:35:20.923Z,7.63
2019-05-20T10:37:52.110Z,4.23
2019-05-20T10:40:22.942Z,4.93
2019-05-20T10:42:53.161Z,7.70
2019-05-20T10:45:24.709Z,7.43
2019-05-20T10:47:55.154Z,8.90
2019-05-20T10:50:25.335Z,4.63
2019-05-20T10:52:55.591Z,6.03
2019-05-20T10:55:25.983Z,7.23
2019-05-20T10:57:56.363Z,4.70
2019-05-20T11:00:26.746Z,5.90
2019-05-20T11:02:57.011Z,6.00
2019-05-20T11:05:27.323Z,5.03
2019-05-20T11:07:57.878Z,6.53
2019-05-20T11:10:28.299Z,4.43
2019-05-20T11:13:00.317Z,4.97
2019-05-20T11:15:31.580Z,3.87
2019-05-20T11:18:01.835Z,6.67
2019-05-20T11:20:32.339Z,5.40
2019-05-20T11:23:03.327Z,4.97
2019-05-20T11:25:33.605Z,5.37
2019-05-20T11:28:04.129Z,5.10
2019-05-20T11:30:34.910Z,7.00
2019-05-20T11:33:05.205Z,3.98
2019-05-20T11:35:35.379Z,8.08
2019-05-20T11:38:05.978Z,5.33
2019-05-20T11:40:36.157Z,3.30
2019-05-20T11:43:06.480Z,3.52
2019-05-20T11:45:37.325Z,3.73
2019-05-20T11:48:07.646Z,5.15
2019-05-20T11:50:37.868Z,4.40
2019-05-20T11:53:08.133Z,5.58
2019-05-20T11:55:38.573Z,2.87
2019-05-20T11:58:15.962Z,5.97
2019-05-20T12:00:41.547Z,10.13
2019-05-20T12:03:12.028Z,5.47
2019-05-20T12:05:43.786Z,5.92
2019-05-20T12:08:14.376Z,5.03
2019-05-20T12:10:45.114Z,5.40
2019-05-20T12:13:15.343Z,3.42
2019-05-20T12:15:45.527Z,4.70
2019-05-20T12:18:15.732Z,9.17
2019-05-20T12:20:45.924Z,6.25
2019-05-20T12:23:16.293Z,5.08
2019-05-20T12:25:47.147Z,4.67
2019-05-20T12:28:17.364Z,3.83
2019-05-20T12:30:47.911Z,5.30
2019-05-20T12:33:19.680Z,7.70
2019-05-20T12:35:50.509Z,7.62
2019-05-20T12:38:21.761Z,4.75
2019-05-20T12:40:52.015Z,5.17
2019-05-20T12:43:22.223Z,4.55
2019-05-20T12:45:52.679Z,5.87
2019-05-20T12:48:22.885Z,6.37
2019-05-20T12:50:53.147Z,5.12
2019-05-20T12:53:23.377Z,4.80
2019-05-20T12:55:53.546Z,9.05
2019-05-20T12:58:23.851Z,5.58
2019-05-20T13:00:54.045Z,6.33
2019-05-20T13:03:24.572Z,6.97
2019-05-20T13:05:55.123Z,6.78
2019-05-20T13:08:25.739Z,4.17
2019-05-20T13:10:55.921Z,6.08
2019-05-20T13:13:26.484Z,6.43
2019-05-20T13:15:57.142Z,3.63
2019-05-20T13:18:27.869Z,4.37
2019-05-20T13:20:58.465Z,5.33
2019-05-20T13:23:28.672Z,6.30
2019-05-20T13:25:59.010Z,7.20
2019-05-20T13:28:29.194Z,9.38
2019-05-20T13:30:59.823Z,6.23
2019-05-20T13:33:31.977Z,6.13
2019-05-20T13:36:02.217Z,4.27
2019-05-20T13:38:32.414Z,4.50
2019-05-20T13:41:02.681Z,4.00
2019-05-20T13:43:33.092Z,6.03
2019-05-20T13:46:03.312Z,2.72
2019-05-20T13:48:33.549Z,4.53
2019-05-20T13:51:03.764Z,4.15
2019-05-20T13:53:34.333Z,2.98
2019-05-20T13:56:04.666Z,7.00
2019-05-20T13:58:34.855Z,2.70
2019-05-20T14:01:05.108Z,5.97
2019-05-20T14:03:35.264Z,3.95
2019-05-20T14:06:06.658Z,6.30
2019-05-20T14:08:37.177Z,4.15
2019-05-20T14:11:07.453Z,2.70
2019-05-20T14:13:37.638Z,3.45
2019-05-20T14:16:07.851Z,4.95
2019-05-20T14:18:38.037Z,6.87
2019-05-20T14:21:08.347Z,3.17
2019-05-20T14:23:38.808Z,5.15
2019-05-20T14:26:09.133Z,6.53
2019-05-20T14:28:39.463Z,2.20
2019-05-20T14:31:10.076Z,4.43
2019-05-20T14:33:40.309Z,2.65
2019-05-20T14:36:10.597Z,4.55
2019-05-20T14:38:40.815Z,4.95
2019-05-20T14:41:20.887Z,2.08
2019-05-20T14:43:43.094Z,4.55
2019-05-20T14:46:13.342Z,4.27
2019-05-20T14:48:44.989Z,5.47
2019-05-20T14:51:15.268Z,3.37
2019-05-20T14:53:45.519Z,2.98
2019-05-20T14:56:16.173Z,3.17
2019-05-20T14:58:46.357Z,5.08
2019-05-20T15:01:16.640Z,2.90
2019-05-20T15:03:47.148Z,3.42
2019-05-20T15:06:17.357Z,2.27
2019-05-20T15:08:47.547Z,2.60
2019-05-20T15:11:17.790Z,2.35
2019-05-20T15:13:48.444Z,3.08
2019-05-20T15:16:18.743Z,1.27
2019-05-20T15:18:48.941Z,2.72
2019-05-20T15:21:19.529Z,2.98
2019-05-20T15:23:49.721Z,2.98
2019-05-20T15:26:19.937Z,2.80
2019-05-20T15:28:50.120Z,3.42
2019-05-20T15:31:21.002Z,3.40
2019-05-20T15:33:51.188Z,2.50
2019-05-20T15:36:21.424Z,3.07
2019-05-20T15:38:51.627Z,3.13
2019-05-20T15:41:21.825Z,3.47
2019-05-20T15:43:52.017Z,1.75
2019-05-20T15:46:22.252Z,2.85
2019-05-20T15:48:52.546Z,3.45
2019-05-20T15:51:22.750Z,4.47
2019-05-20T15:53:53.352Z,4.15
2019-05-20T15:56:23.571Z,3.50
2019-05-20T15:58:53.796Z,3.27
2019-05-20T16:01:24.102Z,2.80
2019-05-20T16:03:54.571Z,2.85
2019-05-20T16:06:24.857Z,2.33
2019-05-20T16:08:55.383Z,3.50
2019-05-20T16:11:26.190Z,5.33
2019-05-20T16:13:56.716Z,3.47
2019-05-20T16:16:27.997Z,7.67
2019-05-20T16:18:58.329Z,4.90
2019-05-20T16:21:30.095Z,3.87
2019-05-20T16:24:00.283Z,3.13
2019-05-20T16:26:30.504Z,4.07
2019-05-20T16:29:00.690Z,8.20
2019-05-20T16:31:30.916Z,6.13
2019-05-20T16:34:01.178Z,6.17
2019-05-20T16:36:31.384Z,5.83
2019-05-20T16:39:01.635Z,5.00
2019-05-20T16:41:33.219Z,4.80
2019-05-20T16:44:03.490Z,4.73
2019-05-20T16:46:33.735Z,7.63
2019-05-20T16:49:03.930Z,6.87
2019-05-20T16:51:34.145Z,4.92
2019-05-20T16:54:04.429Z,4.90
2019-05-20T16:56:34.634Z,4.87
2019-05-20T16:59:04.856Z,3.60
2019-05-20T17:01:46.038Z,4.65
2019-05-20T17:04:08.022Z,6.65
2019-05-20T17:06:38.195Z,7.80
2019-05-20T17:09:08.606Z,5.13
2019-05-20T17:11:39.430Z,5.23
2019-05-20T17:14:10.668Z,4.27
2019-05-20T17:16:41.232Z,7.63
2019-05-20T17:19:12.747Z,6.93
2019-05-20T17:21:42.970Z,6.50
2019-05-20T17:24:13.185Z,5.08
2019-05-20T17:26:43.567Z,4.83
2019-05-20T17:29:17.208Z,3.03
2019-05-20T17:31:48.093Z,5.73
2019-05-20T17:34:18.647Z,6.00
2019-05-20T17:36:49.332Z,5.83
2019-05-20T17:39:19.881Z,6.47
2019-05-20T17:41:50.525Z,4.67
2019-05-20T17:44:20.746Z,5.93
2019-05-20T17:46:51.248Z,4.97
2019-05-20T17:49:21.821Z,7.20
2019-05-20T17:51:54.044Z,5.87
2019-05-20T17:54:24.260Z,4.47
2019-05-20T17:56:54.586Z,7.97
2019-05-20T17:59:24.945Z,7.63
2019-05-20T18:01:55.174Z,8.57
2019-05-20T18:04:26.059Z,7.67
2019-05-20T18:06:56.664Z,7.03
2019-05-20T18:09:29.066Z,8.10
2019-05-20T18:12:00.365Z,7.53
2019-05-20T18:14:31.336Z,9.30
2019-05-20T18:17:02.712Z,7.30
2019-05-20T18:19:32.981Z,8.10
2019-05-20T18:22:03.187Z,10.30
2019-05-20T18:24:33.534Z,6.23
2019-05-20T18:27:03.728Z,8.57
2019-05-20T18:29:33.941Z,8.77
2019-05-20T18:32:04.148Z,8.83
2019-05-20T18:34:34.713Z,7.27
2019-05-20T18:37:05.177Z,6.03
2019-05-20T18:39:35.772Z,7.27
2019-05-20T18:42:07.430Z,7.10
2019-05-20T18:44:37.647Z,10.90
2019-05-20T18:47:08.127Z,7.30
2019-05-20T18:49:41.229Z,6.00
2019-05-20T18:52:10.708Z,7.70
2019-05-20T18:54:41.275Z,8.63
2019-05-20T18:57:12.162Z,7.73
2019-05-20T18:59:42.386Z,5.40
2019-05-20T19:02:13.782Z,5.97
2019-05-20T19:04:44.058Z,5.43
2019-05-20T19:07:14.667Z,12.50
2019-05-20T19:09:45.311Z,6.30
2019-05-20T19:12:15.492Z,8.58
2019-05-20T19:14:45.713Z,7.08
2019-05-20T19:17:16.279Z,7.90
2019-05-20T19:19:46.825Z,7.03
2019-05-20T19:22:17.069Z,7.33
2019-05-20T19:24:48.308Z,6.17
2019-05-20T19:27:19.206Z,5.53
2019-05-20T19:29:50.895Z,7.73
2019-05-20T19:32:21.817Z,6.20
2019-05-20T19:34:52.440Z,6.67
2019-05-20T19:37:23.475Z,5.53
2019-05-20T19:39:53.704Z,4.70
2019-05-20T19:42:25.107Z,4.90
2019-05-20T19:44:55.375Z,4.57
2019-05-20T19:47:27.518Z,4.97
2019-05-20T19:49:57.838Z,4.33
2019-05-20T19:52:28.029Z,4.87
2019-05-20T19:54:58.273Z,4.77
2019-05-20T19:57:28.746Z,3.73
2019-05-20T19:59:59.016Z,5.43
2019-05-20T20:02:29.194Z,6.23
2019-05-20T20:04:59.412Z,5.50
2019-05-20T20:07:29.666Z,4.80
2019-05-20T20:10:00.586Z,6.33
2019-05-20T20:12:31.172Z,5.90
2019-05-20T20:15:01.842Z,6.60
2019-05-20T20:17:32.094Z,4.17
2019-05-20T20:20:02.405Z,5.50
2019-05-20T20:22:32.582Z,9.23
2019-05-20T20:25:02.799Z,9.77
2019-05-20T20:27:33.090Z,8.30
2019-05-20T20:30:03.294Z,4.67
2019-05-20T20:32:38.462Z,5.93
2019-05-20T20:35:07.507Z,4.80
2019-05-20T20:37:38.033Z,6.00
2019-05-20T20:40:09.558Z,4.77
2019-05-20T20:42:39.774Z,5.17
2019-05-20T20:45:10.105Z,4.57
2019-05-20T20:47:42.138Z,5.90
2019-05-20T20:50:12.840Z,5.50
2019-05-20T20:52:43.180Z,4.37
2019-05-20T20:55:13.857Z,3.30
2019-05-20T20:57:45.247Z,6.23
2019-05-20T21:00:16.390Z,3.73
2019-05-20T21:02:53.319Z,3.93
2019-05-20T21:05:18.789Z,4.17
2019-05-20T21:07:51.649Z,4.17
2019-05-20T21:10:20.996Z,3.53
2019-05-20T21:12:51.496Z,4.03
2019-05-20T21:15:21.725Z,3.10
2019-05-20T21:17:52.005Z,5.60
2019-05-20T21:20:22.886Z,6.73
2019-05-20T21:22:53.546Z,3.87
2019-05-20T21:25:23.996Z,4.33
2019-05-20T21:27:54.667Z,4.70
2019-05-20T21:30:24.866Z,4.17
2019-05-20T21:33:08.234Z,3.17
2019-05-20T21:35:27.466Z,4.50
2019-05-20T21:37:57.781Z,4.47
2019-05-20T21:40:28.271Z,6.47
2019-05-20T21:42:58.486Z,4.50
2019-05-20T21:45:28.663Z,6.33
2019-05-20T21:47:59.310Z,4.23
2019-05-20T21:50:29.494Z,4.77
2019-05-20T21:52:59.696Z,4.97
2019-05-20T21:55:29.995Z,5.70
2019-05-20T21:58:00.323Z,5.13
2019-05-20T22:00:48.558Z,3.93
2019-05-20T22:03:24.342Z,5.33
2019-05-20T22:05:51.145Z,3.73
2019-05-20T22:08:21.346Z,2.70
2019-05-20T22:10:51.540Z,2.67
2019-05-20T22:13:21.742Z,5.43
2019-05-20T22:15:51.947Z,3.70
2019-05-20T22:18:22.195Z,2.97
2019-05-20T22:20:52.374Z,3.40
2019-05-20T22:23:27.766Z,4.57
2019-05-20T22:25:57.942Z,4.23
2019-05-20T22:28:28.163Z,3.83
2019-05-20T22:30:58.368Z,3.33
2019-05-20T22:33:40.469Z,3.53
2019-05-20T22:36:00.507Z,4.33
2019-05-20T22:38:31.021Z,3.37
2019-05-20T22:41:01.204Z,3.00
2019-05-20T22:43:31.753Z,3.00
2019-05-20T22:46:01.934Z,3.00
2019-05-20T22:48:33.373Z,3.83
2019-05-20T22:51:03.855Z,4.53
2019-05-20T22:53:34.392Z,2.40
2019-05-20T22:56:04.715Z,2.63
2019-05-20T22:58:38.437Z,2.93
2019-05-20T23:01:06.860Z,3.60
2019-05-20T23:03:37.111Z,4.00
2019-05-20T23:06:07.304Z,2.83
2019-05-20T23:08:37.640Z,2.53
2019-05-20T23:11:07.820Z,2.77
2019-05-20T23:13:38.033Z,2.50
2019-05-20T23:16:08.217Z,2.90
2019-05-20T23:18:38.437Z,2.33
2019-05-20T23:21:08.630Z,3.97
2019-05-20T23:23:39.229Z,2.97
2019-05-20T23:26:09.731Z,2.80
2019-05-20T23:28:39.968Z,1.80
2019-05-20T23:31:10.178Z,2.63
2019-05-20T23:33:40.414Z,2.77
2019-05-20T23:36:10.591Z,2.70
2019-05-20T23:38:40.798Z,2.63
2019-05-20T23:41:10.979Z,2.70
2019-05-20T23:43:41.212Z,2.60
2019-05-20T23:46:11.739Z,2.10
2019-05-20T23:48:42.243Z,2.03
2019-05-20T23:51:12.434Z,3.57
2019-05-20T23:53:42.999Z,3.63
2019-05-20T23:56:13.533Z,2.27
2019-05-20T23:58:43.745Z,2.43
